createdAt,value
2023-01-03T00:01:45.908Z,11.32
2023-01-03T00:04:14.765Z,9.75
2023-01-03T00:06:47.972Z,8.40
2023-01-03T00:09:19.378Z,9.60
2023-01-03T00:12:07.523Z,9.70
2023-01-03T00:14:38.584Z,8.25
2023-01-03T00:17:08.787Z,8.32
2023-01-03T00:19:40.599Z,2.28
2023-01-03T00:22:12.118Z,3.45
2023-01-03T00:24:40.537Z,3.60
2023-01-03T00:27:10.113Z,4.63
2023-01-03T00:29:38.899Z,3.15
2023-01-03T00:32:08.989Z,3.47
2023-01-03T00:34:37.759Z,3.97
2023-01-03T00:37:06.713Z,3.05
2023-01-03T00:39:37.285Z,3.65
2023-01-03T00:42:05.711Z,3.72
2023-01-03T00:44:35.173Z,4.47
2023-01-03T00:47:04.080Z,5.05
2023-01-03T00:49:32.655Z,2.90
2023-01-03T00:52:01.976Z,4.68
2023-01-03T00:54:30.332Z,2.42
2023-01-03T00:57:00.282Z,5.22
2023-01-03T00:59:28.736Z,2.80
2023-01-03T01:01:59.131Z,3.78
2023-01-03T01:04:29.903Z,2.60
2023-01-03T01:07:01.672Z,2.08
2023-01-03T01:09:33.186Z,2.75
2023-01-03T01:12:03.180Z,1.65
2023-01-03T01:14:33.918Z,3.05
2023-01-03T01:17:03.947Z,1.65
2023-01-03T01:19:35.294Z,1.48
2023-01-03T01:22:04.792Z,1.87
2023-01-03T01:24:33.941Z,2.05
2023-01-03T01:27:03.885Z,2.78
2023-01-03T01:29:33.652Z,1.63
2023-01-03T01:32:02.988Z,2.58
2023-01-03T01:34:33.646Z,1.92
2023-01-03T01:37:01.990Z,2.58
2023-01-03T01:39:31.775Z,2.13
2023-01-03T01:42:23.148Z,1.80
2023-01-03T01:44:57.483Z,1.40
2023-01-03T01:47:31.991Z,1.95
2023-01-03T01:50:07.305Z,1.50
2023-01-03T01:52:39.953Z,1.42
2023-01-03T01:55:13.076Z,1.23
2023-01-03T01:57:44.387Z,0.93
2023-01-03T02:00:15.855Z,1.42
2023-01-03T02:02:49.378Z,0.93
2023-01-03T02:05:20.655Z,1.30
2023-01-03T02:07:51.169Z,2.55
2023-01-03T02:10:26.579Z,2.40
2023-01-03T02:13:10.566Z,1.77
2023-01-03T02:15:54.756Z,1.27
2023-01-03T02:18:36.878Z,2.15
2023-01-03T02:21:32.706Z,1.95
2023-01-03T02:24:34.089Z,0.93
2023-01-03T02:27:19.337Z,1.10
2023-01-03T02:30:30.595Z,1.05
2023-01-03T02:33:11.888Z,1.83
2023-01-03T02:35:50.040Z,1.48
2023-01-03T02:38:26.192Z,1.90
2023-01-03T02:41:02.413Z,2.83
2023-01-03T02:43:38.181Z,0.80
2023-01-03T02:46:14.090Z,0.90
2023-01-03T02:48:50.375Z,0.98
2023-01-03T02:51:23.360Z,1.88
2023-01-03T02:53:53.050Z,1.15
2023-01-03T02:56:26.315Z,3.42
2023-01-03T02:59:01.550Z,0.80
2023-01-03T03:01:32.220Z,2.92
2023-01-03T03:04:04.482Z,3.53
2023-01-03T03:06:40.057Z,2.30
2023-01-03T03:09:08.956Z,0.80
2023-01-03T03:11:58.828Z,1.40
2023-01-03T03:14:33.563Z,1.65
2023-01-03T03:17:07.815Z,2.83
2023-01-03T03:19:56.053Z,0.98
2023-01-03T03:22:48.258Z,1.27
2023-01-03T03:25:23.183Z,1.27
2023-01-03T03:28:11.942Z,1.63
2023-01-03T03:30:44.981Z,1.50
2023-01-03T03:33:16.760Z,2.38
2023-01-03T03:35:48.928Z,0.98
2023-01-03T03:38:22.477Z,1.38
2023-01-03T03:41:24.114Z,0.88
2023-01-03T03:44:22.943Z,1.67
2023-01-03T03:46:56.666Z,1.23
2023-01-03T03:49:39.336Z,2.30
2023-01-03T03:52:13.394Z,1.00
2023-01-03T03:54:47.007Z,2.35
2023-01-03T03:57:22.537Z,1.10
2023-01-03T03:59:55.655Z,1.85
2023-01-03T04:02:27.791Z,1.92
2023-01-03T04:05:01.203Z,1.10
2023-01-03T04:07:30.741Z,1.42
2023-01-03T04:09:59.302Z,2.47
2023-01-03T04:12:27.756Z,1.13
2023-01-03T04:14:57.090Z,1.48
2023-01-03T04:17:25.973Z,2.65
2023-01-03T04:19:54.383Z,1.67
2023-01-03T04:22:24.317Z,1.40
2023-01-03T04:24:52.671Z,1.35
2023-01-03T04:27:21.816Z,1.77
2023-01-03T04:29:50.482Z,1.95
2023-01-03T04:32:19.555Z,1.40
2023-01-03T04:34:47.956Z,2.77
2023-01-03T04:37:16.766Z,2.13
2023-01-03T04:39:47.112Z,1.30
2023-01-03T04:42:33.824Z,1.30
2023-01-03T04:45:02.456Z,1.50
2023-01-03T04:47:31.278Z,1.38
2023-01-03T04:50:00.200Z,1.48
2023-01-03T04:52:29.991Z,1.88
2023-01-03T04:55:00.753Z,1.88
2023-01-03T04:57:29.173Z,1.83
2023-01-03T04:59:58.470Z,2.28
2023-01-03T05:02:27.439Z,2.42
2023-01-03T05:04:56.136Z,2.50
2023-01-03T05:07:24.467Z,2.92
2023-01-03T05:09:52.790Z,1.80
2023-01-03T05:12:23.384Z,4.30
2023-01-03T05:14:52.277Z,3.05
2023-01-03T05:17:21.332Z,2.30
2023-01-03T05:20:08.428Z,1.88
2023-01-03T05:22:54.592Z,4.70
2023-01-03T05:25:42.999Z,3.45
2023-01-03T05:28:17.287Z,1.50
2023-01-03T05:30:46.750Z,3.45
2023-01-03T05:33:15.560Z,2.67
2023-01-03T05:35:46.850Z,1.20
2023-01-03T05:38:16.385Z,1.65
2023-01-03T05:40:45.141Z,3.25
2023-01-03T05:43:15.393Z,1.40
2023-01-03T05:45:43.899Z,1.45
2023-01-03T05:48:13.085Z,2.63
2023-01-03T05:50:41.941Z,2.90
2023-01-03T05:53:10.424Z,1.47
2023-01-03T05:55:40.480Z,3.05
2023-01-03T05:58:09.343Z,1.77
2023-01-03T06:00:40.171Z,1.87
2023-01-03T06:03:08.775Z,2.23
2023-01-03T06:05:38.094Z,2.65
2023-01-03T06:08:06.876Z,2.70
2023-01-03T06:10:37.148Z,2.53
2023-01-03T06:13:06.185Z,2.97
2023-01-03T06:15:34.542Z,4.15
2023-01-03T06:18:04.132Z,2.78
2023-01-03T06:20:32.507Z,2.05
2023-01-03T06:23:01.887Z,3.08
2023-01-03T06:25:30.237Z,2.87
2023-01-03T06:27:59.058Z,3.43
2023-01-03T06:30:27.518Z,1.77
2023-01-03T06:32:56.319Z,4.27
2023-01-03T06:35:26.108Z,3.20
2023-01-03T06:37:54.472Z,4.07
2023-01-03T06:40:23.357Z,3.88
2023-01-03T06:42:51.721Z,3.53
2023-01-03T06:45:38.613Z,3.67
2023-01-03T06:48:25.433Z,3.95
2023-01-03T06:51:14.517Z,2.77
2023-01-03T06:53:44.169Z,3.80
2023-01-03T06:56:12.780Z,3.37
2023-01-03T06:58:42.315Z,3.65
2023-01-03T07:01:10.918Z,2.83
2023-01-03T07:03:39.825Z,4.03
2023-01-03T07:06:09.568Z,4.77
2023-01-03T07:08:44.143Z,3.53
2023-01-03T07:11:16.530Z,5.13
2023-01-03T07:14:00.803Z,3.13
2023-01-03T07:16:31.725Z,2.90
2023-01-03T07:19:00.440Z,4.60
2023-01-03T07:21:34.785Z,4.23
2023-01-03T07:24:05.732Z,4.83
2023-01-03T07:26:36.403Z,4.07
2023-01-03T07:29:07.604Z,4.03
2023-01-03T07:31:40.856Z,3.75
2023-01-03T07:34:10.642Z,5.10
2023-01-03T07:36:40.971Z,6.63
2023-01-03T07:39:09.458Z,6.03
2023-01-03T07:41:56.222Z,4.43
2023-01-03T07:44:24.914Z,4.90
2023-01-03T07:46:53.425Z,6.67
2023-01-03T07:49:22.810Z,4.07
2023-01-03T07:51:52.480Z,4.70
2023-01-03T07:54:21.340Z,5.27
2023-01-03T07:56:50.546Z,4.87
2023-01-03T07:59:19.026Z,5.90
2023-01-03T08:01:48.137Z,4.83
2023-01-03T08:04:17.639Z,5.83
2023-01-03T08:06:46.590Z,4.33
2023-01-03T08:09:34.935Z,4.90
2023-01-03T08:12:21.400Z,4.10
2023-01-03T08:14:49.893Z,5.17
2023-01-03T08:17:18.481Z,4.30
2023-01-03T08:19:46.834Z,5.17
2023-01-03T08:22:15.255Z,3.90
2023-01-03T08:24:45.339Z,3.47
2023-01-03T08:27:13.762Z,3.23
2023-01-03T08:29:42.531Z,3.90
2023-01-03T08:32:11.484Z,2.97
2023-01-03T08:34:44.303Z,3.40
2023-01-03T08:37:16.398Z,13.13
2023-01-03T08:39:52.455Z,17.38
2023-01-03T08:42:23.852Z,8.07
2023-01-03T08:45:00.001Z,4.60
2023-01-03T08:47:30.198Z,4.28
2023-01-03T08:49:59.820Z,4.82
2023-01-03T08:52:34.604Z,6.43
2023-01-03T08:55:06.213Z,5.53
2023-01-03T08:57:34.709Z,5.77
2023-01-03T09:00:06.139Z,5.07
2023-01-03T09:02:36.339Z,4.38
2023-01-03T09:05:05.387Z,5.53
2023-01-03T09:07:34.187Z,5.25
2023-01-03T09:10:03.235Z,8.05
2023-01-03T09:12:32.954Z,5.00
2023-01-03T09:15:01.345Z,6.30
2023-01-03T09:17:31.117Z,6.47
2023-01-03T09:19:59.539Z,7.68
2023-01-03T09:22:28.228Z,15.63
2023-01-03T09:24:56.687Z,21.42
2023-01-03T09:27:26.216Z,20.98
2023-01-03T09:29:55.980Z,26.02
2023-01-03T09:32:24.333Z,25.83
2023-01-03T09:34:52.673Z,36.67
2023-01-03T09:37:21.205Z,27.90
2023-01-03T09:39:49.576Z,16.63
2023-01-03T09:42:39.643Z,17.23
2023-01-03T09:45:15.426Z,16.00
2023-01-03T09:47:45.579Z,19.73
2023-01-03T09:50:38.866Z,22.27
2023-01-03T09:53:34.250Z,17.47
2023-01-03T09:56:19.944Z,16.45
2023-01-03T09:59:11.963Z,15.77
2023-01-03T10:02:10.711Z,17.93
2023-01-03T10:04:58.377Z,16.97
2023-01-03T10:07:44.548Z,16.38
2023-01-03T10:10:19.879Z,21.13
2023-01-03T10:13:03.932Z,16.33
2023-01-03T10:15:42.691Z,17.53
2023-01-03T10:18:28.168Z,14.13
2023-01-03T10:21:02.763Z,14.50
2023-01-03T10:23:32.184Z,17.70
2023-01-03T10:26:00.959Z,19.90
2023-01-03T10:28:37.798Z,18.10
2023-01-03T10:31:21.418Z,19.47
2023-01-03T10:33:52.307Z,17.08
2023-01-03T10:36:22.603Z,166.48
2023-01-03T10:39:05.505Z,27.45
2023-01-03T10:41:41.926Z,20.25
2023-01-03T10:44:24.069Z,19.20
2023-01-03T10:46:54.858Z,16.42
2023-01-03T10:49:29.508Z,20.73
2023-01-03T10:52:02.644Z,17.95
2023-01-03T10:54:45.686Z,16.10
2023-01-03T10:57:37.500Z,16.10
2023-01-03T11:00:26.965Z,11.80
2023-01-03T11:02:56.807Z,13.00
2023-01-03T11:05:28.374Z,14.63
2023-01-03T11:07:57.909Z,17.43
2023-01-03T11:10:35.528Z,19.60
2023-01-03T11:13:18.200Z,18.48
2023-01-03T11:15:46.575Z,19.57
2023-01-03T11:18:21.016Z,18.30
2023-01-03T11:20:55.662Z,14.30
2023-01-03T11:23:37.009Z,11.73
2023-01-03T11:26:18.979Z,34.65
2023-01-03T11:29:08.062Z,13.20
2023-01-03T11:31:47.876Z,12.00
2023-01-03T11:35:03.062Z,13.55
2023-01-03T11:37:32.849Z,15.57
2023-01-03T11:40:14.294Z,13.48
2023-01-03T11:42:56.351Z,12.30
2023-01-03T11:45:48.442Z,11.45
2023-01-03T11:48:40.794Z,12.63
2023-01-03T11:51:15.395Z,12.35
2023-01-03T11:54:03.324Z,11.05
2023-01-03T11:56:36.243Z,12.90
2023-01-03T11:59:26.813Z,11.07
2023-01-03T12:02:28.923Z,9.43
2023-01-03T12:05:14.699Z,13.20
2023-01-03T12:07:57.428Z,10.80
2023-01-03T12:10:36.699Z,11.13
2023-01-03T12:13:17.769Z,15.23
2023-01-03T12:15:50.721Z,11.70
2023-01-03T12:18:30.148Z,12.90
2023-01-03T12:21:03.786Z,12.07
2023-01-03T12:23:40.864Z,13.55
2023-01-03T12:26:13.471Z,14.40
2023-01-03T12:28:43.640Z,13.53
2023-01-03T12:31:27.837Z,13.60
2023-01-03T12:34:10.115Z,14.30
2023-01-03T12:36:46.115Z,15.90
2023-01-03T12:39:37.068Z,15.13
2023-01-03T12:42:15.706Z,17.80
2023-01-03T12:44:47.413Z,17.85
2023-01-03T12:47:23.724Z,16.70
2023-01-03T12:49:59.124Z,17.70
2023-01-03T12:52:28.904Z,18.85
2023-01-03T12:55:02.482Z,17.90
2023-01-03T12:57:53.160Z,18.00
2023-01-03T13:00:41.834Z,19.98
2023-01-03T13:03:21.007Z,19.42
2023-01-03T13:05:52.876Z,19.50
2023-01-03T13:08:31.793Z,15.45
2023-01-03T13:11:05.010Z,13.63
2023-01-03T13:13:35.958Z,14.57
2023-01-03T13:16:39.148Z,14.57
2023-01-03T13:19:51.426Z,16.73
2023-01-03T13:22:23.679Z,12.32
2023-01-03T13:24:53.163Z,12.88
2023-01-03T13:27:35.099Z,12.97
2023-01-03T13:30:20.679Z,12.20
2023-01-03T13:32:52.075Z,14.52
2023-01-03T13:35:32.681Z,12.32
2023-01-03T13:38:24.068Z,10.45
2023-01-03T13:43:51.222Z,10.05
2023-01-03T13:46:25.953Z,13.55
2023-01-03T13:48:58.603Z,13.52
2023-01-03T13:51:50.702Z,17.85
2023-01-03T13:54:37.537Z,11.27
2023-01-03T13:57:28.983Z,10.05
2023-01-03T14:00:00.194Z,15.10
2023-01-03T14:05:56.754Z,14.98
2023-01-03T14:08:43.086Z,11.82
2023-01-03T14:11:42.399Z,9.38
2023-01-03T14:14:14.463Z,15.32
2023-01-03T14:16:47.700Z,8.48
2023-01-03T14:19:22.759Z,9.27
2023-01-03T14:21:56.321Z,8.23
2023-01-03T14:24:30.743Z,6.00
2023-01-03T14:27:08.928Z,5.60
2023-01-03T14:29:44.543Z,8.93
2023-01-03T14:32:21.758Z,10.23
2023-01-03T14:34:50.953Z,6.60
2023-01-03T14:37:21.461Z,6.88
2023-01-03T14:39:56.799Z,8.05
2023-01-03T14:42:25.750Z,7.25
2023-01-03T14:44:57.570Z,7.47
2023-01-03T14:47:33.482Z,6.10
2023-01-03T14:50:03.563Z,7.87
2023-01-03T14:52:34.941Z,8.33
2023-01-03T14:55:08.459Z,7.90
2023-01-03T14:57:39.681Z,10.50
2023-01-03T15:00:13.770Z,9.90
2023-01-03T15:02:43.109Z,11.88
2023-01-03T15:05:26.024Z,13.82
2023-01-03T15:07:55.596Z,13.88
2023-01-03T15:10:35.901Z,17.08
2023-01-03T15:13:05.359Z,12.95
2023-01-03T15:15:39.233Z,14.10
2023-01-03T15:18:10.053Z,11.73
2023-01-03T15:20:41.473Z,14.45
2023-01-03T15:23:28.379Z,11.57
2023-01-03T15:26:00.942Z,13.05
2023-01-03T15:28:31.986Z,10.18
2023-01-03T15:31:14.812Z,8.43
2023-01-03T15:33:45.387Z,7.90
2023-01-03T15:36:19.240Z,9.30
2023-01-03T15:38:49.774Z,13.23
2023-01-03T15:41:38.806Z,15.27
2023-01-03T15:44:08.250Z,14.05
2023-01-03T15:46:37.633Z,9.27
2023-01-03T15:49:07.219Z,11.82
2023-01-03T15:51:37.853Z,10.23
2023-01-03T15:54:13.562Z,12.90
2023-01-03T15:56:49.223Z,12.00
2023-01-03T15:59:24.803Z,11.73
2023-01-03T16:01:54.427Z,12.02
2023-01-03T16:04:23.668Z,12.73
2023-01-03T16:06:53.368Z,11.87
2023-01-03T16:09:22.335Z,12.17
2023-01-03T16:11:58.847Z,9.90
2023-01-03T16:14:35.192Z,15.37
2023-01-03T16:17:06.013Z,13.93
2023-01-03T16:19:36.084Z,13.97
2023-01-03T16:22:33.799Z,15.80
2023-01-03T16:24:55.549Z,15.80
2023-01-03T16:27:26.302Z,18.60
2023-01-03T16:29:55.110Z,20.00
2023-01-03T16:32:27.443Z,21.93
2023-01-03T16:34:58.452Z,20.85
2023-01-03T16:37:28.440Z,16.93
2023-01-03T16:39:58.859Z,15.70
2023-01-03T16:42:28.761Z,19.73
2023-01-03T16:44:57.854Z,22.97
2023-01-03T16:47:31.305Z,24.33
2023-01-03T16:50:01.997Z,29.80
2023-01-03T16:52:35.897Z,24.07
2023-01-03T16:55:07.918Z,20.83
2023-01-03T16:57:38.077Z,26.80
2023-01-03T17:00:18.096Z,18.07
2023-01-03T17:02:47.940Z,18.23
2023-01-03T17:05:16.929Z,15.47
2023-01-03T17:07:48.021Z,14.53
2023-01-03T17:10:27.232Z,13.87
2023-01-03T17:12:58.923Z,14.13
2023-01-03T17:15:28.475Z,12.33
2023-01-03T17:17:56.992Z,14.73
2023-01-03T17:20:25.556Z,12.57
2023-01-03T17:22:57.430Z,12.83
2023-01-03T17:25:26.950Z,14.13
2023-01-03T17:27:59.764Z,15.73
2023-01-03T17:30:29.633Z,13.90
2023-01-03T17:32:58.522Z,13.23
2023-01-03T17:35:27.544Z,11.60
2023-01-03T17:38:24.782Z,11.60
2023-01-03T17:40:49.560Z,11.73
2023-01-03T17:43:24.347Z,17.30
2023-01-03T17:46:16.125Z,14.27
2023-01-03T17:49:07.264Z,16.20
2023-01-03T17:51:35.951Z,33.70
2023-01-03T17:54:05.160Z,27.00
2023-01-03T17:56:33.592Z,59.33
2023-01-03T17:59:05.511Z,29.93
2023-01-03T18:01:34.361Z,21.00
2023-01-03T18:04:03.646Z,26.90
2023-01-03T18:06:32.305Z,21.53
2023-01-03T18:09:04.627Z,16.70
2023-01-03T18:11:33.086Z,15.70
2023-01-03T18:14:03.455Z,14.47
2023-01-03T18:16:33.500Z,10.77
2023-01-03T18:19:02.709Z,18.23
2023-01-03T18:21:31.565Z,39.97
2023-01-03T18:24:03.123Z,31.47
2023-01-03T18:26:34.883Z,21.00
2023-01-03T18:29:06.488Z,20.63
2023-01-03T18:31:35.518Z,30.17
2023-01-03T18:34:04.659Z,96.90
2023-01-03T18:36:39.787Z,91.57
2023-01-03T18:39:14.408Z,158.43
2023-01-03T18:41:43.185Z,185.27
2023-01-03T18:44:20.764Z,69.47
2023-01-03T18:46:49.247Z,62.30
2023-01-03T18:49:18.838Z,40.30
2023-01-03T18:51:50.326Z,44.83
2023-01-03T18:54:21.127Z,42.17
2023-01-03T18:56:49.784Z,35.73
2023-01-03T18:59:23.111Z,35.03
2023-01-03T19:01:51.819Z,34.10
2023-01-03T19:04:21.121Z,39.90
2023-01-03T19:06:52.149Z,35.43
2023-01-03T19:09:23.325Z,45.87
2023-01-03T19:11:54.002Z,59.90
2023-01-03T19:14:24.035Z,52.17
2023-01-03T19:16:53.083Z,43.83
2023-01-03T19:19:21.708Z,39.03
2023-01-03T19:21:50.885Z,34.07
2023-01-03T19:24:24.692Z,30.77
2023-01-03T19:26:59.548Z,23.53
2023-01-03T19:29:37.068Z,28.00
2023-01-03T19:32:11.201Z,41.63
2023-01-03T19:34:42.470Z,40.30
2023-01-03T19:37:11.311Z,45.60
2023-01-03T19:39:40.318Z,57.80
2023-01-03T19:42:29.057Z,48.20
2023-01-03T19:45:00.412Z,44.33
2023-01-03T19:47:28.961Z,35.80
2023-01-03T19:49:59.167Z,37.33
2023-01-03T19:52:27.548Z,36.67
2023-01-03T19:54:55.946Z,33.13
2023-01-03T19:57:30.165Z,35.23
2023-01-03T20:00:01.535Z,46.17
2023-01-03T20:02:37.631Z,35.43
2023-01-03T20:05:18.914Z,36.23
2023-01-03T20:07:49.037Z,29.47
2023-01-03T20:10:19.257Z,28.17
2023-01-03T20:12:49.012Z,29.53
2023-01-03T20:15:25.271Z,27.63
2023-01-03T20:17:54.899Z,24.20
2023-01-03T20:20:24.428Z,23.23
2023-01-03T20:23:06.406Z,25.63
2023-01-03T20:25:37.453Z,22.57
2023-01-03T20:28:07.253Z,20.93
2023-01-03T20:30:38.758Z,20.03
2023-01-03T20:33:08.067Z,20.83
2023-01-03T20:36:08.804Z,23.83
2023-01-03T20:38:27.160Z,18.57
2023-01-03T20:40:57.883Z,24.03
2023-01-03T20:43:26.666Z,21.93
2023-01-03T20:46:00.644Z,29.23
2023-01-03T20:48:30.473Z,20.97
2023-01-03T20:50:59.044Z,21.47
2023-01-03T20:53:28.154Z,22.50
2023-01-03T20:55:57.414Z,22.60
2023-01-03T20:58:27.527Z,21.63
2023-01-03T21:01:04.457Z,21.20
2023-01-03T21:03:35.523Z,21.70
2023-01-03T21:06:14.157Z,19.33
2023-01-03T21:08:58.012Z,19.00
2023-01-03T21:11:28.616Z,23.60
2023-01-03T21:13:57.923Z,32.57
2023-01-03T21:16:34.347Z,23.40
2023-01-03T21:19:05.364Z,24.13
2023-01-03T21:21:35.582Z,25.60
2023-01-03T21:24:04.829Z,40.10
2023-01-03T21:26:34.542Z,44.37
2023-01-03T21:29:03.045Z,33.23
2023-01-03T21:31:34.683Z,33.80
2023-01-03T21:34:04.448Z,44.03
2023-01-03T21:36:34.927Z,53.40
2023-01-03T21:39:04.519Z,25.43
2023-01-03T21:41:34.891Z,59.70
2023-01-03T21:44:05.083Z,42.97
2023-01-03T21:46:34.855Z,46.50
2023-01-03T21:49:03.595Z,52.50
2023-01-03T21:51:38.716Z,41.33
2023-01-03T21:54:08.602Z,24.70
2023-01-03T21:56:45.055Z,22.03
2023-01-03T21:59:14.669Z,23.37
2023-01-03T22:02:03.793Z,15.33
2023-01-03T22:04:32.709Z,20.07
2023-01-03T22:07:01.923Z,19.47
2023-01-03T22:09:49.936Z,25.23
2023-01-03T22:12:20.015Z,31.30
2023-01-03T22:14:49.137Z,36.37
2023-01-03T22:17:18.873Z,41.03
2023-01-03T22:19:47.257Z,32.10
2023-01-03T22:22:15.648Z,41.90
2023-01-03T22:24:44.087Z,38.43
2023-01-03T22:27:12.515Z,26.13
2023-01-03T22:29:40.975Z,27.70
2023-01-03T22:32:10.499Z,29.27
2023-01-03T22:34:42.986Z,53.53
2023-01-03T22:37:11.359Z,36.37
2023-01-03T22:39:39.805Z,36.77
2023-01-03T22:42:08.233Z,26.80
2023-01-03T22:44:36.623Z,37.00
2023-01-03T22:47:05.417Z,29.60
2023-01-03T22:49:33.883Z,28.83
2023-01-03T22:52:03.677Z,47.57
2023-01-03T22:54:33.557Z,43.17
2023-01-03T22:57:02.157Z,23.87
2023-01-03T22:59:31.339Z,51.80
2023-01-03T23:02:00.542Z,82.40
2023-01-03T23:04:29.086Z,61.40
2023-01-03T23:06:57.820Z,75.83
2023-01-03T23:09:27.556Z,97.10
2023-01-03T23:12:13.767Z,36.27
2023-01-03T23:14:42.132Z,30.67
2023-01-03T23:17:28.392Z,19.90
2023-01-03T23:19:57.237Z,24.33
2023-01-03T23:22:26.813Z,24.13
2023-01-03T23:24:58.423Z,22.33
2023-01-03T23:27:27.314Z,22.20
2023-01-03T23:29:56.665Z,20.63
2023-01-03T23:32:25.062Z,27.20
2023-01-03T23:34:53.387Z,25.93
2023-01-03T23:37:21.783Z,20.63
2023-01-03T23:39:50.152Z,38.57
2023-01-03T23:42:19.995Z,36.70
2023-01-03T23:44:48.881Z,64.83
2023-01-03T23:47:17.874Z,48.27
2023-01-03T23:49:47.037Z,216.10
2023-01-03T23:52:15.794Z,156.73
2023-01-03T23:54:44.349Z,79.80
2023-01-03T23:57:14.789Z,85.27
2023-01-03T23:59:44.570Z,41.77
